createdAt,value
2022-11-15T00:02:56.356Z,5.30
2022-11-15T00:06:03.861Z,4.43
2022-11-15T00:09:09.469Z,4.90
2022-11-15T00:12:15.116Z,5.00
2022-11-15T00:15:20.600Z,4.57
2022-11-15T00:18:25.981Z,5.30
2022-11-15T00:21:31.269Z,4.63
2022-11-15T00:24:36.729Z,4.90
2022-11-15T00:27:42.293Z,4.80
2022-11-15T00:30:47.998Z,4.30
2022-11-15T00:33:53.775Z,4.90
2022-11-15T00:36:59.153Z,4.73
2022-11-15T00:40:05.260Z,5.10
2022-11-15T00:43:11.082Z,4.93
2022-11-15T00:46:16.685Z,4.63
2022-11-15T00:49:22.195Z,4.73
2022-11-15T00:52:27.562Z,4.40
2022-11-15T00:55:33.043Z,4.27
2022-11-15T00:58:38.478Z,4.13
2022-11-15T01:01:44.177Z,4.03
2022-11-15T01:04:49.738Z,3.93
2022-11-15T01:07:58.644Z,4.03
2022-11-15T01:11:06.745Z,4.70
2022-11-15T01:14:12.184Z,4.67
2022-11-15T01:17:17.634Z,4.40
2022-11-15T01:20:23.044Z,4.83
2022-11-15T01:23:29.145Z,5.07
2022-11-15T01:26:35.121Z,5.03
2022-11-15T01:29:40.758Z,4.30
2022-11-15T01:32:46.309Z,4.37
2022-11-15T01:35:51.854Z,3.90
2022-11-15T01:38:59.177Z,4.07
2022-11-15T01:42:04.845Z,4.30
2022-11-15T01:45:17.186Z,4.30
2022-11-15T01:48:27.216Z,4.23
2022-11-15T01:51:34.256Z,4.70
2022-11-15T01:54:40.784Z,4.63
2022-11-15T01:57:49.302Z,4.00
2022-11-15T02:00:54.999Z,4.03
2022-11-15T02:04:06.777Z,4.10
2022-11-15T02:07:17.609Z,4.20
2022-11-15T02:10:25.047Z,4.30
2022-11-15T02:13:30.716Z,4.10
2022-11-15T02:16:54.205Z,4.07
2022-11-15T02:20:21.993Z,4.27
2022-11-15T02:23:55.613Z,4.77
2022-11-15T02:27:55.553Z,4.30
2022-11-15T02:31:03.796Z,3.73
2022-11-15T02:34:13.092Z,4.00
2022-11-15T02:37:27.528Z,3.90
2022-11-15T02:40:54.964Z,4.37
2022-11-15T02:44:21.520Z,3.87
2022-11-15T02:47:30.382Z,3.83
2022-11-15T02:50:36.437Z,4.43
2022-11-15T02:53:41.940Z,3.90
2022-11-15T02:56:48.253Z,4.10
2022-11-15T03:00:32.399Z,4.30
2022-11-15T03:03:44.073Z,4.20
2022-11-15T03:06:58.358Z,4.40
2022-11-15T03:10:03.802Z,3.93
2022-11-15T03:13:24.173Z,4.63
2022-11-15T03:16:44.964Z,5.33
2022-11-15T03:19:56.804Z,5.50
2022-11-15T03:23:07.871Z,5.50
2022-11-15T03:26:16.575Z,5.13
2022-11-15T03:29:27.050Z,4.80
2022-11-15T03:32:37.817Z,5.37
2022-11-15T03:35:45.866Z,5.70
2022-11-15T03:38:57.953Z,5.73
2022-11-15T03:42:17.676Z,5.33
2022-11-15T03:45:29.721Z,5.60
2022-11-15T03:48:42.782Z,5.60
2022-11-15T03:51:48.780Z,5.07
2022-11-15T03:54:56.613Z,5.20
2022-11-15T03:58:02.978Z,5.13
2022-11-15T04:01:08.625Z,5.30
2022-11-15T04:04:14.011Z,4.60
2022-11-15T04:07:19.676Z,4.80
2022-11-15T04:10:25.853Z,4.27
2022-11-15T04:13:31.623Z,4.80
2022-11-15T04:16:42.438Z,4.90
2022-11-15T04:20:07.921Z,5.00
2022-11-15T04:23:41.001Z,5.60
2022-11-15T04:26:46.661Z,6.17
2022-11-15T04:29:52.430Z,5.67
2022-11-15T04:32:57.929Z,5.90
2022-11-15T04:36:22.132Z,7.20
2022-11-15T04:39:28.064Z,9.40
2022-11-15T04:42:33.685Z,7.70
2022-11-15T04:45:39.291Z,7.90
2022-11-15T04:48:44.970Z,7.73
2022-11-15T04:51:50.666Z,6.87
2022-11-15T04:54:56.218Z,6.83
2022-11-15T04:58:03.590Z,6.30
2022-11-15T05:01:14.924Z,6.23
2022-11-15T05:04:20.236Z,5.57
2022-11-15T05:07:25.837Z,5.73
2022-11-15T05:10:31.594Z,5.97
2022-11-15T05:13:37.357Z,6.03
2022-11-15T05:16:43.703Z,5.50
2022-11-15T05:19:49.537Z,6.10
2022-11-15T05:22:56.824Z,5.70
2022-11-15T05:26:09.001Z,5.77
2022-11-15T05:29:15.710Z,6.13
2022-11-15T05:32:22.259Z,5.53
2022-11-15T05:35:38.285Z,5.53
2022-11-15T05:38:45.327Z,5.23
2022-11-15T05:42:00.319Z,5.00
2022-11-15T05:45:09.694Z,5.40
2022-11-15T05:48:16.316Z,5.30
2022-11-15T05:51:23.920Z,5.20
2022-11-15T05:54:31.666Z,5.57
2022-11-15T05:57:37.885Z,5.43
2022-11-15T06:00:44.431Z,5.30
2022-11-15T06:03:50.514Z,5.60
2022-11-15T06:06:56.688Z,5.20
2022-11-15T06:10:02.744Z,5.37
2022-11-15T06:13:08.305Z,5.70
2022-11-15T06:16:13.881Z,5.47
2022-11-15T06:19:19.620Z,4.93
2022-11-15T06:22:25.192Z,5.30
2022-11-15T06:25:31.651Z,4.80
2022-11-15T06:28:37.510Z,5.93
2022-11-15T06:31:42.990Z,5.50
2022-11-15T06:34:48.780Z,5.10
2022-11-15T06:37:54.399Z,4.80
2022-11-15T06:41:09.331Z,4.80
2022-11-15T06:44:14.684Z,4.70
2022-11-15T06:47:20.221Z,4.87
2022-11-15T06:50:26.260Z,5.00
2022-11-15T06:53:33.424Z,5.37
2022-11-15T06:56:39.462Z,5.20
2022-11-15T06:59:44.853Z,5.50
2022-11-15T07:02:51.178Z,5.07
2022-11-15T07:06:02.742Z,5.30
2022-11-15T07:09:12.578Z,5.40
2022-11-15T07:12:18.113Z,6.60
2022-11-15T07:15:26.835Z,5.90
2022-11-15T07:18:34.234Z,5.87
2022-11-15T07:21:40.009Z,5.50
2022-11-15T07:24:45.582Z,5.40
2022-11-15T07:27:58.715Z,5.20
2022-11-15T07:31:05.390Z,6.20
2022-11-15T07:34:11.006Z,6.00
2022-11-15T07:37:17.713Z,5.50
2022-11-15T07:40:24.146Z,5.70
2022-11-15T07:43:30.911Z,5.67
2022-11-15T07:46:36.985Z,5.57
2022-11-15T07:49:42.517Z,5.10
2022-11-15T07:52:48.227Z,5.10
2022-11-15T07:55:54.505Z,5.00
2022-11-15T07:59:00.175Z,5.23
2022-11-15T08:02:06.202Z,4.80
2022-11-15T08:05:12.048Z,5.50
2022-11-15T08:08:18.312Z,5.00
2022-11-15T08:11:23.966Z,4.47
2022-11-15T08:14:29.348Z,4.50
2022-11-15T08:17:34.923Z,4.73
2022-11-15T08:20:41.501Z,4.83
2022-11-15T08:23:47.665Z,5.17
2022-11-15T08:26:53.564Z,5.00
2022-11-15T08:29:59.683Z,4.30
2022-11-15T08:33:05.722Z,4.67
2022-11-15T08:36:15.685Z,5.30
2022-11-15T08:39:21.203Z,5.53
2022-11-15T08:42:26.716Z,5.60
2022-11-15T08:45:34.732Z,5.60
2022-11-15T08:48:40.402Z,5.87
2022-11-15T08:51:45.748Z,6.37
2022-11-15T08:54:51.350Z,6.33
2022-11-15T08:57:58.738Z,6.63
2022-11-15T09:01:04.701Z,5.60
2022-11-15T09:04:10.297Z,5.57
2022-11-15T09:07:17.056Z,5.27
2022-11-15T09:10:23.596Z,5.07
2022-11-15T09:13:29.353Z,4.50
2022-11-15T09:16:35.337Z,4.67
2022-11-15T09:19:40.747Z,4.90
2022-11-15T09:22:46.087Z,4.90
2022-11-15T09:25:52.291Z,4.50
2022-11-15T09:28:57.913Z,4.83
2022-11-15T09:32:03.576Z,4.63
2022-11-15T09:35:09.293Z,5.50
2022-11-15T09:38:16.321Z,5.03
2022-11-15T09:41:25.193Z,5.00
2022-11-15T09:45:09.044Z,5.37
2022-11-15T09:48:36.366Z,5.30
2022-11-15T09:51:47.699Z,5.80
2022-11-15T09:54:55.741Z,5.90
2022-11-15T09:57:57.629Z,5.20
2022-11-15T10:00:49.766Z,5.97
2022-11-15T10:03:42.768Z,6.13
2022-11-15T10:06:33.547Z,5.50
2022-11-15T10:09:26.902Z,6.00
2022-11-15T10:12:14.992Z,6.43
2022-11-15T10:15:12.796Z,6.60
2022-11-15T10:18:15.820Z,6.53
2022-11-15T10:21:22.862Z,6.30
2022-11-15T10:24:13.797Z,6.70
2022-11-15T10:27:01.434Z,6.70
2022-11-15T10:29:50.537Z,6.73
2022-11-15T10:32:38.166Z,6.67
2022-11-15T10:35:30.700Z,7.00
2022-11-15T10:38:17.647Z,7.03
2022-11-15T10:41:08.845Z,6.33
2022-11-15T10:44:22.816Z,7.10
2022-11-15T10:47:25.991Z,6.50
2022-11-15T10:50:33.069Z,7.80
2022-11-15T10:53:34.230Z,7.17
2022-11-15T10:56:23.122Z,7.03
2022-11-15T10:59:20.262Z,7.70
2022-11-15T11:02:38.770Z,8.03
2022-11-15T11:05:42.675Z,7.03
2022-11-15T11:08:30.461Z,7.50
2022-11-15T11:11:17.751Z,7.43
2022-11-15T11:14:20.625Z,7.30
2022-11-15T11:17:33.732Z,7.40
2022-11-15T11:20:42.865Z,7.93
2022-11-15T11:23:59.646Z,7.47
2022-11-15T11:27:18.651Z,7.93
2022-11-15T11:30:14.596Z,8.10
2022-11-15T11:33:20.239Z,8.20
2022-11-15T11:36:22.220Z,7.40
2022-11-15T11:39:38.965Z,7.63
2022-11-15T11:42:51.184Z,7.67
2022-11-15T11:46:04.454Z,7.33
2022-11-15T11:49:04.471Z,8.03
2022-11-15T11:52:12.973Z,7.57
2022-11-15T11:55:21.831Z,7.13
2022-11-15T11:58:20.813Z,7.03
2022-11-15T12:01:30.757Z,6.87
2022-11-15T12:04:39.357Z,6.60
2022-11-15T12:07:31.989Z,7.60
2022-11-15T12:10:27.092Z,7.47
2022-11-15T12:13:25.359Z,6.90
2022-11-15T12:16:21.058Z,6.90
2022-11-15T12:19:08.897Z,6.27
2022-11-15T12:22:04.093Z,6.60
2022-11-15T12:25:08.610Z,6.77
2022-11-15T12:28:12.767Z,6.63
2022-11-15T12:31:14.066Z,6.90
2022-11-15T12:34:07.265Z,6.90
2022-11-15T12:36:55.050Z,6.90
2022-11-15T12:40:10.215Z,6.67
2022-11-15T12:43:25.971Z,6.10
2022-11-15T12:46:31.386Z,7.37
2022-11-15T12:49:24.253Z,6.67
2022-11-15T12:52:11.397Z,6.23
2022-11-15T12:55:00.557Z,6.40
2022-11-15T12:57:47.688Z,6.57
2022-11-15T13:00:34.549Z,6.53
2022-11-15T13:03:26.481Z,5.93
2022-11-15T13:06:39.144Z,5.07
2022-11-15T13:09:46.343Z,5.30
2022-11-15T13:12:35.280Z,6.03
2022-11-15T13:15:22.860Z,5.80
2022-11-15T13:18:27.936Z,5.67
2022-11-15T13:21:44.302Z,5.30
2022-11-15T13:24:31.324Z,4.67
2022-11-15T13:27:20.408Z,5.00
2022-11-15T13:30:16.746Z,5.10
2022-11-15T13:33:15.967Z,5.40
2022-11-15T13:36:20.521Z,5.03
2022-11-15T13:39:26.038Z,5.97
2022-11-15T13:42:20.656Z,5.93
2022-11-15T13:45:17.750Z,5.77
2022-11-15T13:48:04.845Z,6.27
2022-11-15T13:50:54.148Z,5.53
2022-11-15T13:53:44.487Z,6.50
2022-11-15T13:56:33.362Z,6.20
2022-11-15T13:59:32.428Z,6.10
2022-11-15T14:02:23.622Z,5.70
2022-11-15T14:05:22.055Z,7.30
2022-11-15T14:08:21.744Z,6.90
2022-11-15T14:11:19.103Z,6.30
2022-11-15T14:14:09.043Z,6.50
2022-11-15T14:17:01.307Z,9.83
2022-11-15T14:19:48.294Z,12.17
2022-11-15T14:22:38.000Z,11.53
2022-11-15T14:25:30.647Z,9.30
2022-11-15T14:28:32.125Z,6.73
2022-11-15T14:31:21.912Z,5.87
2022-11-15T14:34:10.026Z,5.63
2022-11-15T14:36:57.315Z,5.00
2022-11-15T14:39:45.071Z,5.20
2022-11-15T14:42:33.033Z,4.23
2022-11-15T14:45:22.567Z,4.60
2022-11-15T14:48:10.044Z,4.40
2022-11-15T14:50:57.913Z,4.77
2022-11-15T14:53:46.625Z,4.20
2022-11-15T14:56:33.980Z,4.43
2022-11-15T14:59:21.160Z,4.80
2022-11-15T15:02:21.200Z,4.63
2022-11-15T15:05:31.769Z,5.03
2022-11-15T15:08:18.965Z,4.97
2022-11-15T15:11:14.232Z,4.77
2022-11-15T15:14:02.222Z,4.83
2022-11-15T15:16:49.261Z,4.60
2022-11-15T15:19:36.231Z,5.13
2022-11-15T15:22:27.226Z,4.60
2022-11-15T15:25:28.151Z,4.77
2022-11-15T15:28:15.776Z,5.47
2022-11-15T15:31:03.288Z,5.07
2022-11-15T15:33:50.325Z,4.30
2022-11-15T15:36:37.281Z,5.07
2022-11-15T15:39:24.752Z,4.57
2022-11-15T15:42:11.705Z,4.30
2022-11-15T15:44:58.718Z,4.53
2022-11-15T15:47:46.797Z,4.20
2022-11-15T15:50:35.666Z,4.33
2022-11-15T15:53:22.880Z,4.13
2022-11-15T15:56:10.451Z,4.33
2022-11-15T15:58:57.501Z,4.53
2022-11-15T16:01:44.520Z,3.93
2022-11-15T16:04:31.566Z,4.17
2022-11-15T16:07:24.601Z,4.23
2022-11-15T16:10:28.165Z,3.63
2022-11-15T16:13:15.475Z,3.80
2022-11-15T16:16:02.434Z,3.57
2022-11-15T16:18:49.423Z,3.87
2022-11-15T16:21:36.401Z,3.53
2022-11-15T16:24:23.560Z,3.40
2022-11-15T16:27:18.758Z,3.13
2022-11-15T16:30:11.789Z,3.30
2022-11-15T16:32:58.848Z,3.53
2022-11-15T16:35:46.808Z,3.10
2022-11-15T16:38:34.303Z,3.67
2022-11-15T16:41:21.640Z,4.43
2022-11-15T16:44:09.116Z,4.40
2022-11-15T16:46:56.464Z,4.40
2022-11-15T16:49:45.406Z,4.20
2022-11-15T16:52:32.630Z,4.83
2022-11-15T16:55:21.008Z,4.63
2022-11-15T16:58:10.792Z,3.70
2022-11-15T17:00:58.052Z,3.97
2022-11-15T17:03:45.162Z,4.13
2022-11-15T17:06:32.187Z,3.83
2022-11-15T17:09:24.406Z,3.30
2022-11-15T17:12:11.704Z,3.50
2022-11-15T17:14:58.668Z,3.40
2022-11-15T17:17:51.868Z,3.37
2022-11-15T17:20:40.814Z,3.90
2022-11-15T17:23:27.774Z,3.63
2022-11-15T17:26:35.050Z,3.93
2022-11-15T17:29:23.122Z,3.37
2022-11-15T17:32:10.183Z,3.40
2022-11-15T17:34:57.168Z,3.80
2022-11-15T17:37:44.256Z,3.57
2022-11-15T17:40:31.331Z,3.60
2022-11-15T17:43:18.342Z,4.07
2022-11-15T17:46:07.825Z,4.43
2022-11-15T17:48:56.781Z,3.83
2022-11-15T17:51:49.636Z,3.70
2022-11-15T17:54:37.059Z,4.13
2022-11-15T17:57:24.127Z,4.33
2022-11-15T18:00:11.662Z,4.60
2022-11-15T18:02:58.657Z,4.77
2022-11-15T18:05:46.050Z,3.97
2022-11-15T18:08:35.941Z,4.40
2022-11-15T18:11:24.281Z,3.90
2022-11-15T18:14:15.209Z,4.47
2022-11-15T18:17:02.190Z,4.93
2022-11-15T18:19:49.192Z,4.80
2022-11-15T18:22:36.194Z,4.77
2022-11-15T18:25:23.272Z,4.60
2022-11-15T18:28:10.245Z,3.93
2022-11-15T18:30:57.247Z,4.70
2022-11-15T18:33:45.145Z,4.40
2022-11-15T18:36:32.191Z,4.90
2022-11-15T18:39:19.581Z,6.00
2022-11-15T18:42:06.630Z,6.17
2022-11-15T18:44:53.612Z,9.43
2022-11-15T18:47:40.608Z,8.90
2022-11-15T18:50:27.581Z,8.87
2022-11-15T18:53:16.012Z,9.27
2022-11-15T18:56:04.950Z,12.57
2022-11-15T18:58:54.906Z,12.67
2022-11-15T19:01:47.106Z,13.67
2022-11-15T19:04:34.525Z,12.30
2022-11-15T19:07:21.578Z,10.40
2022-11-15T19:10:10.855Z,8.97
2022-11-15T19:12:58.244Z,8.27
2022-11-15T19:15:46.123Z,8.40
2022-11-15T19:18:34.246Z,7.00
2022-11-15T19:21:21.878Z,6.30
2022-11-15T19:24:10.405Z,5.83
2022-11-15T19:26:57.387Z,5.97
2022-11-15T19:29:44.398Z,6.60
2022-11-15T19:32:31.385Z,6.53
2022-11-15T19:35:19.064Z,6.70
2022-11-15T19:38:06.461Z,7.10
2022-11-15T19:41:01.954Z,5.97
2022-11-15T19:43:50.824Z,6.63
2022-11-15T19:46:38.603Z,7.30
2022-11-15T19:49:26.084Z,7.33
2022-11-15T19:52:13.086Z,7.80
2022-11-15T19:55:00.304Z,7.37
2022-11-15T19:57:47.269Z,8.13
2022-11-15T20:00:34.261Z,7.73
2022-11-15T20:03:21.431Z,7.90
2022-11-15T20:06:11.738Z,7.70
2022-11-15T20:08:58.806Z,8.10
2022-11-15T20:11:46.020Z,7.57
2022-11-15T20:14:33.395Z,7.93
2022-11-15T20:17:20.438Z,8.07
2022-11-15T20:20:08.170Z,8.10
2022-11-15T20:22:56.074Z,7.63
2022-11-15T20:25:48.732Z,8.77
2022-11-15T20:28:37.629Z,8.40
2022-11-15T20:31:24.889Z,8.30
2022-11-15T20:34:12.023Z,7.90
2022-11-15T20:36:58.986Z,9.07
2022-11-15T20:39:46.130Z,9.37
2022-11-15T20:42:33.093Z,9.37
2022-11-15T20:45:20.840Z,9.37
2022-11-15T20:48:07.884Z,9.37
2022-11-15T20:51:11.140Z,9.33
2022-11-15T20:53:58.201Z,9.93
2022-11-15T20:56:45.744Z,9.40
2022-11-15T20:59:34.829Z,10.10
2022-11-15T21:02:21.879Z,9.57
2022-11-15T21:05:09.481Z,9.10
2022-11-15T21:07:56.500Z,9.53
2022-11-15T21:11:02.317Z,9.87
2022-11-15T21:13:49.705Z,9.90
2022-11-15T21:16:38.716Z,9.97
2022-11-15T21:19:28.959Z,10.77
2022-11-15T21:22:19.541Z,10.70
2022-11-15T21:25:06.777Z,10.33
2022-11-15T21:27:53.770Z,10.13
2022-11-15T21:30:40.785Z,9.53
2022-11-15T21:33:28.503Z,10.10
2022-11-15T21:36:15.907Z,9.90
2022-11-15T21:39:03.472Z,9.83
2022-11-15T21:41:50.483Z,9.37
2022-11-15T21:44:37.558Z,9.57
2022-11-15T21:47:24.535Z,9.07
2022-11-15T21:50:11.692Z,9.57
2022-11-15T21:52:58.648Z,9.47
2022-11-15T21:55:45.602Z,9.37
2022-11-15T21:58:33.085Z,8.90
2022-11-15T22:01:39.877Z,8.90
2022-11-15T22:04:27.125Z,8.80
2022-11-15T22:07:14.128Z,9.13
2022-11-15T22:10:01.178Z,8.43
2022-11-15T22:12:48.146Z,9.00
2022-11-15T22:15:35.096Z,8.70
2022-11-15T22:18:26.440Z,8.37
2022-11-15T22:21:16.664Z,9.77
2022-11-15T22:24:03.997Z,9.93
2022-11-15T22:26:50.987Z,8.30
2022-11-15T22:29:37.967Z,8.37
2022-11-15T22:32:24.916Z,8.00
2022-11-15T22:35:12.481Z,7.97
2022-11-15T22:37:59.451Z,7.93
2022-11-15T22:40:46.971Z,8.60
2022-11-15T22:43:34.863Z,9.00
2022-11-15T22:46:21.820Z,8.53
2022-11-15T22:49:09.244Z,9.77
2022-11-15T22:51:56.206Z,9.40
2022-11-15T22:54:43.305Z,9.23
2022-11-15T22:57:30.335Z,9.23
2022-11-15T23:00:17.910Z,10.13
2022-11-15T23:03:05.102Z,9.33
2022-11-15T23:05:52.519Z,9.57
2022-11-15T23:08:39.849Z,9.90
2022-11-15T23:11:45.664Z,9.60
2022-11-15T23:14:32.738Z,9.90
2022-11-15T23:17:19.756Z,9.53
2022-11-15T23:20:22.462Z,9.07
2022-11-15T23:23:14.460Z,9.20
2022-11-15T23:26:01.781Z,8.37
2022-11-15T23:28:48.818Z,8.43
2022-11-15T23:32:01.690Z,8.23
2022-11-15T23:34:49.612Z,7.40
2022-11-15T23:37:36.674Z,7.60
2022-11-15T23:40:23.702Z,8.00
2022-11-15T23:43:10.672Z,7.77
2022-11-15T23:45:59.544Z,8.53
2022-11-15T23:48:46.753Z,8.07
2022-11-15T23:51:34.002Z,8.50
2022-11-15T23:54:20.956Z,8.80
2022-11-15T23:57:11.805Z,8.60
